createdAt,value
2022-08-17T00:00:44.163Z,21.20
2022-08-17T00:03:13.604Z,21.20
2022-08-17T00:05:45.963Z,21.20
2022-08-17T00:08:16.475Z,21.20
2022-08-17T00:10:46.275Z,21.20
2022-08-17T00:13:19.298Z,21.10
2022-08-17T00:15:47.706Z,21.10
2022-08-17T00:19:02.080Z,21.10
2022-08-17T00:21:10.454Z,21.10
2022-08-17T00:23:47.684Z,21.10
2022-08-17T00:26:43.593Z,21.10
2022-08-17T00:29:07.992Z,21.10
2022-08-17T00:31:36.835Z,21.10
2022-08-17T00:34:08.817Z,21.10
2022-08-17T00:36:37.127Z,21.10
2022-08-17T00:39:06.607Z,21.10
2022-08-17T00:41:35.955Z,21.00
2022-08-17T00:44:10.159Z,21.10
2022-08-17T00:46:41.082Z,21.00
2022-08-17T00:49:12.963Z,21.00
2022-08-17T00:51:45.634Z,21.00
2022-08-17T00:54:16.261Z,21.00
2022-08-17T00:56:49.008Z,21.00
2022-08-17T00:59:21.642Z,20.90
2022-08-17T01:01:51.759Z,20.90
2022-08-17T01:04:24.064Z,20.90
2022-08-17T01:06:56.137Z,20.90
2022-08-17T01:09:24.759Z,20.80
2022-08-17T01:11:53.504Z,20.80
2022-08-17T01:14:23.067Z,20.80
2022-08-17T01:16:54.506Z,20.80
2022-08-17T01:19:26.673Z,20.80
2022-08-17T01:22:01.422Z,20.80
2022-08-17T01:24:33.762Z,20.80
2022-08-17T01:27:02.107Z,20.70
2022-08-17T01:29:32.261Z,20.70
2022-08-17T01:32:03.727Z,20.70
2022-08-17T01:34:38.059Z,20.70
2022-08-17T01:37:12.336Z,20.70
2022-08-17T01:39:45.446Z,20.70
2022-08-17T01:42:21.814Z,20.70
2022-08-17T01:44:52.955Z,20.60
2022-08-17T01:47:21.186Z,20.70
2022-08-17T01:49:50.594Z,20.60
2022-08-17T01:52:19.564Z,20.60
2022-08-17T01:54:51.798Z,20.60
2022-08-17T01:57:20.350Z,20.60
2022-08-17T01:59:48.545Z,20.50
2022-08-17T02:02:30.874Z,20.50
2022-08-17T02:05:00.409Z,20.50
2022-08-17T02:07:29.106Z,20.50
2022-08-17T02:09:58.942Z,20.40
2022-08-17T02:12:37.680Z,20.30
2022-08-17T02:15:10.004Z,20.40
2022-08-17T02:17:40.624Z,20.40
2022-08-17T02:20:10.235Z,20.30
2022-08-17T02:22:40.827Z,20.40
2022-08-17T02:25:12.931Z,20.40
2022-08-17T02:27:41.289Z,20.40
2022-08-17T02:31:02.093Z,20.50
2022-08-17T02:33:04.341Z,20.50
2022-08-17T02:35:34.941Z,20.50
2022-08-17T02:38:03.597Z,20.50
2022-08-17T02:40:36.623Z,20.50
2022-08-17T02:43:07.717Z,20.50
2022-08-17T02:45:36.136Z,20.50
2022-08-17T02:48:05.382Z,20.50
2022-08-17T02:50:33.679Z,20.50
2022-08-17T02:53:04.583Z,20.50
2022-08-17T02:55:37.618Z,20.50
2022-08-17T02:58:06.073Z,20.50
2022-08-17T03:00:36.968Z,20.50
2022-08-17T03:03:07.498Z,20.50
2022-08-17T03:05:37.527Z,20.50
2022-08-17T03:08:07.484Z,20.50
2022-08-17T03:10:43.033Z,20.50
2022-08-17T03:13:14.386Z,20.50
2022-08-17T03:15:45.332Z,20.50
2022-08-17T03:18:25.014Z,20.50
2022-08-17T03:20:56.861Z,20.50
2022-08-17T03:23:26.382Z,20.50
2022-08-17T03:25:57.028Z,20.50
2022-08-17T03:28:26.534Z,20.60
2022-08-17T03:30:54.873Z,20.60
2022-08-17T03:33:23.609Z,20.60
2022-08-17T03:35:52.666Z,20.60
2022-08-17T03:38:21.868Z,20.60
2022-08-17T03:40:56.512Z,20.60
2022-08-17T03:43:29.740Z,20.60
2022-08-17T03:46:33.917Z,20.60
2022-08-17T03:49:21.780Z,20.50
2022-08-17T03:52:07.715Z,20.50
2022-08-17T03:54:53.251Z,20.50
2022-08-17T03:57:22.656Z,20.50
2022-08-17T03:59:53.496Z,20.50
2022-08-17T04:02:25.720Z,20.50
2022-08-17T04:04:54.330Z,20.50
2022-08-17T04:07:25.721Z,20.50
2022-08-17T04:09:54.553Z,20.50
2022-08-17T04:12:24.364Z,20.50
2022-08-17T04:14:55.171Z,20.50
2022-08-17T04:17:25.679Z,20.50
2022-08-17T04:19:54.631Z,20.50
2022-08-17T04:22:31.347Z,20.50
2022-08-17T04:25:05.354Z,20.50
2022-08-17T04:27:33.777Z,20.50
2022-08-17T04:30:05.993Z,20.60
2022-08-17T04:33:04.130Z,20.60
2022-08-17T04:35:26.848Z,20.60
2022-08-17T04:37:55.365Z,20.70
2022-08-17T04:40:43.418Z,20.70
2022-08-17T04:43:14.160Z,20.80
2022-08-17T04:45:51.273Z,20.80
2022-08-17T04:48:35.676Z,20.80
2022-08-17T04:51:08.113Z,20.80
2022-08-17T04:53:36.571Z,20.80
2022-08-17T04:56:05.317Z,20.80
2022-08-17T04:58:33.629Z,20.80
2022-08-17T05:01:03.435Z,20.80
2022-08-17T05:03:32.070Z,20.80
2022-08-17T05:06:00.752Z,20.70
2022-08-17T05:08:29.045Z,20.70
2022-08-17T05:10:57.275Z,20.80
2022-08-17T05:13:29.307Z,20.80
2022-08-17T05:15:59.498Z,20.80
2022-08-17T05:18:30.824Z,20.80
2022-08-17T05:20:59.708Z,20.80
2022-08-17T05:23:41.698Z,20.80
2022-08-17T05:26:25.516Z,20.80
2022-08-17T05:28:55.066Z,20.80
2022-08-17T05:31:26.141Z,20.80
2022-08-17T05:33:56.267Z,20.80
2022-08-17T05:36:38.129Z,20.90
2022-08-17T05:39:16.507Z,20.90
2022-08-17T05:41:46.788Z,20.90
2022-08-17T05:44:15.552Z,21.10
2022-08-17T05:46:48.483Z,21.10
2022-08-17T05:49:23.094Z,21.20
2022-08-17T05:52:12.950Z,21.20
2022-08-17T05:54:58.763Z,21.20
2022-08-17T05:57:51.989Z,21.10
2022-08-17T06:00:26.483Z,21.20
2022-08-17T06:03:32.435Z,21.30
2022-08-17T06:06:18.190Z,21.40
2022-08-17T06:08:52.202Z,21.60
2022-08-17T06:11:31.158Z,21.60
2022-08-17T06:14:23.344Z,21.70
2022-08-17T06:16:56.555Z,21.70
2022-08-17T06:19:34.680Z,21.80
2022-08-17T06:22:06.019Z,21.90
2022-08-17T06:24:38.814Z,22.00
2022-08-17T06:27:14.791Z,22.20
2022-08-17T06:29:51.250Z,22.20
2022-08-17T06:32:20.109Z,22.30
2022-08-17T06:34:49.125Z,22.40
2022-08-17T06:37:34.063Z,22.40
2022-08-17T06:40:19.538Z,22.30
2022-08-17T06:43:05.822Z,22.30
2022-08-17T06:45:39.022Z,22.40
2022-08-17T06:48:14.496Z,22.40
2022-08-17T06:50:48.835Z,22.50
2022-08-17T06:53:25.243Z,22.50
2022-08-17T06:55:59.944Z,22.50
2022-08-17T06:58:31.764Z,22.60
2022-08-17T07:01:07.818Z,22.60
2022-08-17T07:03:41.146Z,22.60
2022-08-17T07:06:15.522Z,22.70
2022-08-17T07:08:57.196Z,22.70
2022-08-17T07:11:29.003Z,22.80
2022-08-17T07:14:07.496Z,23.00
2022-08-17T07:16:41.169Z,23.00
2022-08-17T07:19:11.294Z,23.10
2022-08-17T07:21:50.969Z,23.10
2022-08-17T07:24:33.318Z,23.20
2022-08-17T07:27:27.480Z,23.40
2022-08-17T07:29:59.501Z,23.70
2022-08-17T07:32:31.582Z,23.90
2022-08-17T07:35:16.404Z,24.20
2022-08-17T07:37:53.170Z,24.30
2022-08-17T07:40:31.263Z,24.50
2022-08-17T07:43:22.201Z,25.00
2022-08-17T07:46:34.063Z,25.40
2022-08-17T07:49:19.976Z,25.70
2022-08-17T07:52:23.922Z,26.00
2022-08-17T07:54:52.192Z,25.90
2022-08-17T07:57:36.888Z,25.60
2022-08-17T08:00:16.535Z,25.40
2022-08-17T08:02:59.062Z,25.20
2022-08-17T08:05:49.927Z,25.30
2022-08-17T08:08:31.320Z,25.20
2022-08-17T08:11:03.758Z,25.30
2022-08-17T08:13:35.627Z,25.20
2022-08-17T08:16:25.505Z,25.40
2022-08-17T08:18:57.801Z,25.60
2022-08-17T08:21:36.776Z,26.20
2022-08-17T08:24:36.611Z,26.80
2022-08-17T08:27:19.492Z,27.70
2022-08-17T08:29:55.585Z,28.10
2022-08-17T08:32:36.885Z,28.20
2022-08-17T08:35:09.763Z,28.50
2022-08-17T08:37:55.667Z,28.90
2022-08-17T08:40:38.761Z,29.20
2022-08-17T08:43:18.284Z,29.40
2022-08-17T08:45:56.918Z,29.20
2022-08-17T08:48:53.408Z,29.40
2022-08-17T08:51:37.960Z,29.20
2022-08-17T08:54:15.679Z,29.20
2022-08-17T08:57:19.773Z,29.90
2022-08-17T08:59:45.037Z,30.30
2022-08-17T09:02:46.927Z,30.40
2022-08-17T09:05:27.013Z,30.50
2022-08-17T09:08:04.758Z,30.20
2022-08-17T09:10:55.985Z,30.40
2022-08-17T09:13:32.840Z,29.90
2022-08-17T09:16:08.510Z,29.90
2022-08-17T09:19:00.285Z,29.80
2022-08-17T09:21:47.749Z,30.00
2022-08-17T09:24:24.566Z,30.30
2022-08-17T09:26:59.455Z,30.50
2022-08-17T09:29:32.633Z,31.00
2022-08-17T09:32:03.830Z,31.50
2022-08-17T09:34:39.753Z,31.80
2022-08-17T09:37:22.891Z,32.20
2022-08-17T09:39:59.456Z,32.30
2022-08-17T09:42:32.921Z,32.10
2022-08-17T09:45:12.930Z,32.20
2022-08-17T09:47:46.691Z,32.70
2022-08-17T09:51:03.984Z,32.40
2022-08-17T09:53:12.804Z,31.70
2022-08-17T09:55:58.093Z,31.40
2022-08-17T09:58:34.808Z,31.50
2022-08-17T10:01:18.078Z,31.40
2022-08-17T10:04:03.741Z,31.00
2022-08-17T10:06:38.853Z,30.60
2022-08-17T10:09:15.726Z,30.40
2022-08-17T10:12:06.719Z,30.40
2022-08-17T10:14:43.880Z,30.80
2022-08-17T10:17:22.224Z,30.80
2022-08-17T10:19:58.605Z,31.70
2022-08-17T10:22:53.405Z,31.90
2022-08-17T10:25:54.823Z,32.90
2022-08-17T10:28:29.725Z,34.10
2022-08-17T10:31:30.968Z,35.10
2022-08-17T10:34:04.149Z,35.20
2022-08-17T10:36:46.300Z,35.50
2022-08-17T10:39:27.587Z,36.10
2022-08-17T10:42:00.590Z,35.70
2022-08-17T10:44:42.741Z,36.20
2022-08-17T10:47:14.454Z,36.40
2022-08-17T10:49:48.242Z,36.40
2022-08-17T10:52:52.553Z,36.30
2022-08-17T10:55:25.861Z,36.30
2022-08-17T10:58:22.135Z,37.10
2022-08-17T11:01:13.085Z,37.40
2022-08-17T11:03:55.022Z,37.60
2022-08-17T11:06:33.535Z,37.90
2022-08-17T11:09:26.300Z,37.60
2022-08-17T11:12:16.633Z,37.20
2022-08-17T11:15:02.734Z,36.90
2022-08-17T11:17:50.845Z,36.30
2022-08-17T11:21:03.559Z,36.40
2022-08-17T11:24:07.956Z,36.60
2022-08-17T11:26:42.232Z,34.70
2022-08-17T11:29:24.660Z,32.70
2022-08-17T11:32:08.095Z,31.60
2022-08-17T11:34:41.238Z,31.90
2022-08-17T11:37:24.775Z,32.40
2022-08-17T11:40:26.424Z,32.00
2022-08-17T11:43:21.265Z,31.40
2022-08-17T11:46:12.207Z,31.30
2022-08-17T11:49:13.415Z,32.00
2022-08-17T11:52:13.136Z,32.70
2022-08-17T11:54:45.383Z,33.00
2022-08-17T11:58:01.934Z,32.80
2022-08-17T12:00:57.714Z,31.90
2022-08-17T12:03:55.306Z,30.80
2022-08-17T12:06:49.385Z,30.30
2022-08-17T12:09:25.186Z,29.90
2022-08-17T12:12:13.431Z,29.60
2022-08-17T12:17:41.389Z,29.20
2022-08-17T12:20:17.783Z,28.90
2022-08-17T12:22:54.910Z,28.40
2022-08-17T12:25:33.032Z,28.00
2022-08-17T12:28:06.304Z,27.80
2022-08-17T12:30:37.281Z,27.50
2022-08-17T12:33:12.773Z,27.50
2022-08-17T12:35:43.607Z,28.00
2022-08-17T12:38:32.056Z,28.60
2022-08-17T12:41:21.574Z,28.90
2022-08-17T12:44:02.278Z,28.90
2022-08-17T12:46:35.034Z,28.80
2022-08-17T12:49:26.505Z,28.60
2022-08-17T12:52:07.774Z,28.50
2022-08-17T12:54:53.043Z,28.90
2022-08-17T12:57:24.122Z,29.60
2022-08-17T12:59:58.381Z,30.00
2022-08-17T13:02:32.779Z,30.00
2022-08-17T13:05:02.373Z,30.10
2022-08-17T13:07:42.889Z,29.90
2022-08-17T13:10:19.133Z,30.00
2022-08-17T13:12:48.045Z,30.00
2022-08-17T13:15:23.347Z,30.10
2022-08-17T13:18:05.061Z,29.90
2022-08-17T13:20:36.338Z,29.80
2022-08-17T13:23:12.621Z,29.40
2022-08-17T13:25:41.261Z,29.30
2022-08-17T13:28:35.517Z,29.20
2022-08-17T13:31:27.908Z,29.30
2022-08-17T13:34:14.499Z,29.40
2022-08-17T13:36:44.342Z,29.60
2022-08-17T13:39:21.069Z,29.10
2022-08-17T13:41:50.727Z,28.50
2022-08-17T13:44:32.392Z,28.10
2022-08-17T13:47:02.029Z,27.70
2022-08-17T13:49:48.165Z,27.50
2022-08-17T13:52:34.765Z,27.20
2022-08-17T13:55:09.537Z,27.00
2022-08-17T13:57:38.618Z,26.90
2022-08-17T14:00:17.205Z,27.10
2022-08-17T14:02:45.576Z,27.20
2022-08-17T14:05:13.823Z,27.40
2022-08-17T14:07:42.346Z,27.40
2022-08-17T14:10:17.504Z,27.50
2022-08-17T14:12:46.555Z,27.50
2022-08-17T14:15:17.179Z,27.50
2022-08-17T14:17:45.912Z,27.40
2022-08-17T14:20:14.719Z,27.00
2022-08-17T14:22:47.301Z,26.90
2022-08-17T14:25:20.809Z,26.90
2022-08-17T14:27:53.018Z,26.90
2022-08-17T14:30:24.074Z,27.10
2022-08-17T14:32:53.252Z,27.20
2022-08-17T14:35:23.855Z,27.40
2022-08-17T14:37:53.031Z,27.40
2022-08-17T14:40:25.537Z,27.30
2022-08-17T14:42:55.302Z,27.20
2022-08-17T14:45:29.839Z,27.10
2022-08-17T14:48:02.985Z,27.10
2022-08-17T14:50:31.702Z,27.00
2022-08-17T14:53:01.561Z,26.80
2022-08-17T14:55:32.777Z,26.90
2022-08-17T14:58:01.016Z,26.90
2022-08-17T15:00:29.469Z,27.00
2022-08-17T15:03:00.213Z,27.10
2022-08-17T15:05:31.538Z,26.90
2022-08-17T15:08:00.632Z,26.60
2022-08-17T15:10:30.896Z,26.40
2022-08-17T15:13:00.275Z,26.20
2022-08-17T15:15:30.129Z,26.00
2022-08-17T15:18:00.000Z,25.90
2022-08-17T15:20:31.520Z,26.00
2022-08-17T15:23:00.415Z,26.10
2022-08-17T15:25:31.923Z,26.20
2022-08-17T15:28:01.791Z,26.20
2022-08-17T15:30:30.962Z,26.30
2022-08-17T15:33:00.715Z,26.30
2022-08-17T15:35:31.785Z,26.20
2022-08-17T15:38:08.038Z,26.20
2022-08-17T15:40:43.366Z,26.20
2022-08-17T15:43:14.733Z,26.40
2022-08-17T15:45:43.309Z,26.50
2022-08-17T15:48:14.313Z,26.30
2022-08-17T15:50:42.940Z,26.20
2022-08-17T15:53:11.969Z,26.20
2022-08-17T15:55:43.980Z,26.20
2022-08-17T15:58:12.514Z,26.20
2022-08-17T16:00:53.345Z,26.10
2022-08-17T16:04:01.513Z,26.00
2022-08-17T16:06:19.993Z,26.00
2022-08-17T16:08:48.566Z,25.90
2022-08-17T16:11:19.737Z,25.70
2022-08-17T16:13:54.794Z,25.50
2022-08-17T16:16:24.841Z,25.40
2022-08-17T16:18:54.726Z,25.40
2022-08-17T16:21:29.653Z,25.30
2022-08-17T16:24:01.232Z,25.30
2022-08-17T16:26:33.437Z,25.20
2022-08-17T16:29:03.742Z,25.10
2022-08-17T16:31:32.288Z,25.10
2022-08-17T16:34:16.699Z,25.00
2022-08-17T16:36:55.583Z,24.90
2022-08-17T16:39:29.610Z,24.80
2022-08-17T16:42:00.352Z,24.80
2022-08-17T16:44:32.217Z,24.70
2022-08-17T16:47:01.941Z,24.60
2022-08-17T16:49:36.713Z,24.60
2022-08-17T16:52:10.314Z,24.60
2022-08-17T16:54:41.885Z,24.60
2022-08-17T16:57:11.829Z,24.60
2022-08-17T16:59:43.782Z,24.60
2022-08-17T17:02:17.608Z,24.60
2022-08-17T17:04:52.554Z,24.60
2022-08-17T17:07:50.097Z,24.50
2022-08-17T17:10:22.101Z,24.50
2022-08-17T17:13:03.866Z,24.50
2022-08-17T17:15:44.779Z,24.50
2022-08-17T17:18:15.536Z,24.60
2022-08-17T17:20:50.735Z,24.50
2022-08-17T17:23:32.773Z,24.50
2022-08-17T17:26:10.980Z,24.40
2022-08-17T17:28:57.288Z,24.40
2022-08-17T17:31:31.819Z,24.30
2022-08-17T17:34:06.006Z,24.30
2022-08-17T17:36:40.650Z,24.20
2022-08-17T17:39:13.860Z,24.20
2022-08-17T17:41:48.291Z,24.10
2022-08-17T17:44:21.140Z,24.10
2022-08-17T17:46:52.482Z,24.00
2022-08-17T17:49:21.317Z,24.00
2022-08-17T17:52:11.059Z,24.00
2022-08-17T17:55:00.136Z,23.90
2022-08-17T17:57:39.405Z,23.90
2022-08-17T18:00:14.129Z,23.80
2022-08-17T18:02:58.321Z,23.80
2022-08-17T18:05:44.535Z,23.70
2022-08-17T18:08:32.095Z,23.60
2022-08-17T18:11:12.515Z,23.50
2022-08-17T18:13:57.660Z,23.40
2022-08-17T18:16:32.133Z,23.30
2022-08-17T18:19:01.802Z,23.20
2022-08-17T18:21:36.398Z,23.20
2022-08-17T18:24:08.414Z,23.10
2022-08-17T18:26:48.908Z,23.10
2022-08-17T18:29:31.694Z,23.00
2022-08-17T18:32:33.833Z,22.90
2022-08-17T18:35:30.717Z,22.90
2022-08-17T18:38:20.857Z,22.80
2022-08-17T18:41:00.591Z,22.80
2022-08-17T18:43:36.484Z,22.90
2022-08-17T18:46:28.681Z,22.80
2022-08-17T18:49:01.344Z,22.90
2022-08-17T18:51:42.269Z,22.90
2022-08-17T18:54:18.873Z,22.80
2022-08-17T18:56:53.377Z,22.90
2022-08-17T18:59:28.268Z,22.80
2022-08-17T19:02:15.337Z,22.80
2022-08-17T19:05:08.081Z,22.70
2022-08-17T19:07:39.520Z,22.60
2022-08-17T19:10:19.244Z,22.50
2022-08-17T19:12:52.738Z,22.50
2022-08-17T19:15:34.299Z,22.40
2022-08-17T19:18:10.908Z,22.40
2022-08-17T19:20:48.242Z,22.30
2022-08-17T19:23:24.440Z,22.30
2022-08-17T19:25:55.434Z,22.20
2022-08-17T19:28:30.800Z,22.20
2022-08-17T19:31:01.987Z,22.20
2022-08-17T19:33:32.170Z,22.10
2022-08-17T19:36:07.355Z,22.10
2022-08-17T19:38:46.983Z,22.10
2022-08-17T19:41:23.662Z,22.10
2022-08-17T19:44:13.517Z,21.90
2022-08-17T19:46:50.642Z,21.90
2022-08-17T19:49:41.202Z,21.90
2022-08-17T19:52:37.470Z,21.80
2022-08-17T19:55:19.847Z,21.80
2022-08-17T19:58:02.182Z,21.70
2022-08-17T20:00:32.376Z,21.60
2022-08-17T20:03:06.533Z,21.60
2022-08-17T20:05:54.604Z,21.40
2022-08-17T20:08:32.602Z,21.30
2022-08-17T20:11:09.155Z,21.20
2022-08-17T20:13:41.773Z,21.20
2022-08-17T20:16:12.526Z,21.10
2022-08-17T20:18:55.253Z,21.10
2022-08-17T20:21:31.147Z,21.10
2022-08-17T20:24:06.965Z,21.10
2022-08-17T20:26:55.539Z,21.00
2022-08-17T20:29:37.147Z,21.00
2022-08-17T20:32:38.649Z,20.90
2022-08-17T20:35:22.417Z,20.90
2022-08-17T20:37:57.462Z,20.90
2022-08-17T20:40:31.868Z,20.80
2022-08-17T20:43:21.048Z,20.70
2022-08-17T20:46:13.013Z,20.70
2022-08-17T20:48:45.441Z,20.70
2022-08-17T20:51:27.166Z,20.60
2022-08-17T20:54:04.583Z,20.60
2022-08-17T20:56:57.448Z,20.60
2022-08-17T20:59:57.687Z,20.60
2022-08-17T21:02:28.809Z,20.50
2022-08-17T21:05:30.030Z,20.50
2022-08-17T21:08:02.379Z,20.40
2022-08-17T21:10:40.631Z,20.40
2022-08-17T21:13:53.181Z,20.40
2022-08-17T21:16:32.435Z,20.40
2022-08-17T21:19:10.896Z,20.30
2022-08-17T21:21:48.313Z,20.30
2022-08-17T21:24:27.555Z,20.30
2022-08-17T21:27:08.480Z,20.20
2022-08-17T21:29:53.956Z,20.20
2022-08-17T21:32:31.615Z,20.20
2022-08-17T21:35:22.558Z,20.10
2022-08-17T21:37:53.310Z,20.10
2022-08-17T21:40:26.753Z,20.10
2022-08-17T21:42:58.310Z,20.10
2022-08-17T21:45:31.648Z,20.00
2022-08-17T21:48:14.001Z,19.90
2022-08-17T21:50:44.783Z,19.90
2022-08-17T21:53:32.878Z,19.80
2022-08-17T21:56:02.063Z,19.80
2022-08-17T21:58:34.597Z,19.80
2022-08-17T22:01:23.878Z,19.80
2022-08-17T22:04:02.491Z,19.70
2022-08-17T22:06:36.268Z,19.70
2022-08-17T22:09:13.969Z,19.60
2022-08-17T22:12:01.773Z,19.60
2022-08-17T22:14:53.345Z,19.60
2022-08-17T22:17:26.055Z,19.50
2022-08-17T22:19:58.103Z,19.60
2022-08-17T22:22:34.325Z,19.50
2022-08-17T22:25:05.763Z,19.40
2022-08-17T22:27:52.226Z,19.40
2022-08-17T22:30:35.185Z,19.30
2022-08-17T22:33:32.448Z,19.30
2022-08-17T22:36:22.000Z,19.30
2022-08-17T22:38:51.750Z,19.20
2022-08-17T22:41:40.900Z,19.20
2022-08-17T22:44:17.246Z,19.10
2022-08-17T22:46:58.032Z,19.10
2022-08-17T22:49:30.692Z,19.00
2022-08-17T22:52:05.120Z,19.00
2022-08-17T22:54:51.424Z,19.00
2022-08-17T22:57:38.858Z,18.90
2022-08-17T23:00:34.493Z,18.90
2022-08-17T23:03:15.794Z,18.90
2022-08-17T23:05:47.625Z,18.90
2022-08-17T23:08:21.256Z,18.80
2022-08-17T23:10:50.311Z,18.90
2022-08-17T23:13:18.605Z,18.80
2022-08-17T23:15:49.877Z,18.80
2022-08-17T23:18:18.286Z,18.80
2022-08-17T23:20:46.935Z,18.70
2022-08-17T23:23:18.018Z,18.70
2022-08-17T23:25:49.381Z,18.70
2022-08-17T23:28:17.642Z,18.60
2022-08-17T23:30:48.457Z,18.60
2022-08-17T23:33:21.484Z,18.60
2022-08-17T23:35:49.658Z,18.60
2022-08-17T23:38:18.193Z,18.60
2022-08-17T23:40:46.932Z,18.50
2022-08-17T23:43:24.560Z,18.50
2022-08-17T23:45:57.652Z,18.50
2022-08-17T23:48:34.130Z,18.50
2022-08-17T23:51:09.619Z,18.50
2022-08-17T23:53:41.913Z,18.50
2022-08-17T23:56:11.830Z,18.50
2022-08-17T23:58:42.129Z,18.50
